Time;durP1;ratioP1;P1;durP2;ratioP2;P2;SDS_P1;SDS_P2;PMS_P1;PMS_P2;Temp;Humidity;BMP_temperature;BMP_pressure;BME280_temperature;BME280_humidity;BME280_pressure;Samples;Min_cycle;Max_cycle;Signal;HPM_P1;HPM_P2
2021/01/25 00:00:58;;;;;;;15.13;9.07;;;;;;;;;;10174553;29;20242;-80
2021/01/25 00:06:00;;;;;;;16.53;9.43;;;;;;;;;;10174590;29;20681;-80
2021/01/25 00:11:01;;;;;;;16.00;9.17;;;;;;;;;;10180044;29;20339;-80
2021/01/25 00:16:04;;;;;;;16.17;9.60;;;;;;;;;;10171527;29;20439;-81
2021/01/25 00:21:07;;;;;;;15.30;8.53;;;;;;;;;;10175904;29;20642;-80
2021/01/25 00:26:08;;;;;;;15.70;8.43;;;;;;;;;;10170968;29;20589;-80
2021/01/25 00:31:11;;;;;;;13.30;8.30;;;;;;;;;;10176076;29;20208;-80
2021/01/25 00:36:13;;;;;;;18.37;8.43;;;;;;;;;;10173622;29;20235;-80
2021/01/25 00:41:15;;;;;;;15.53;8.00;;;;;;;;;;10175957;29;20244;-80
2021/01/25 00:46:18;;;;;;;14.93;8.83;;;;;;;;;;10179369;29;20219;-80
2021/01/25 00:51:19;;;;;;;15.70;9.17;;;;;;;;;;10174864;29;20231;-80
2021/01/25 00:56:21;;;;;;;15.70;9.03;;;;;;;;;;10178160;29;21231;-80
2021/01/25 01:01:24;;;;;;;15.17;9.17;;;;;;;;;;10180373;29;20621;-80
2021/01/25 01:06:26;;;;;;;16.33;8.80;;;;;;;;;;10176336;29;20237;-79
2021/01/25 01:11:28;;;;;;;16.87;9.53;;;;;;;;;;10176947;28;20242;-81
2021/01/25 01:16:31;;;;;;;14.27;9.30;;;;;;;;;;10177173;29;20250;-80
2021/01/25 01:21:33;;;;;;;16.90;9.53;;;;;;;;;;10176492;29;20239;-80
2021/01/25 01:26:34;;;;;;;15.47;9.20;;;;;;;;;;10172166;29;20587;-79
2021/01/25 01:31:37;;;;;;;13.80;8.23;;;;;;;;;;10175355;29;20647;-80
2021/01/25 01:36:39;;;;;;;14.17;8.80;;;;;;;;;;10173072;29;20240;-81
2021/01/25 01:41:41;;;;;;;12.97;8.60;;;;;;;;;;10171603;29;20247;-81
2021/01/25 01:46:44;;;;;;;11.87;8.10;;;;;;;;;;10179362;29;20235;-81
2021/01/25 01:51:46;;;;;;;15.07;9.20;;;;;;;;;;10173230;29;20310;-81
2021/01/25 01:56:48;;;;;;;13.20;8.23;;;;;;;;;;10174363;29;21057;-80
2021/01/25 02:01:51;;;;;;;13.63;8.07;;;;;;;;;;10173111;29;20899;-80
2021/01/25 02:06:54;;;;;;;14.87;8.67;;;;;;;;;;10171630;29;20685;-80
2021/01/25 02:11:57;;;;;;;14.27;8.57;;;;;;;;;;10171593;29;20215;-81
2021/01/25 02:17:00;;;;;;;16.27;8.63;;;;;;;;;;10176292;29;20218;-80
2021/01/25 02:22:07;;;;;;;12.23;7.30;;;;;;;;;;10173724;29;20235;-80
2021/01/25 02:27:17;;;;;;;14.10;8.20;;;;;;;;;;10182077;29;20212;-79
2021/01/25 02:32:20;;;;;;;13.77;8.30;;;;;;;;;;10185607;29;20733;-79
2021/01/25 02:37:22;;;;;;;14.33;8.57;;;;;;;;;;10187436;29;20451;-81
2021/01/25 02:42:25;;;;;;;14.67;9.27;;;;;;;;;;10173525;29;20648;-80
2021/01/25 02:47:28;;;;;;;13.90;8.53;;;;;;;;;;10176677;29;20223;-80
2021/01/25 02:52:30;;;;;;;16.20;9.10;;;;;;;;;;10180012;29;20225;-79
2021/01/25 02:57:34;;;;;;;14.90;9.20;;;;;;;;;;10179389;29;20588;-79
2021/01/25 03:02:37;;;;;;;15.47;9.10;;;;;;;;;;10174803;29;20239;-79
2021/01/25 03:07:40;;;;;;;13.97;8.53;;;;;;;;;;10178584;28;20578;-79
2021/01/25 03:12:41;;;;;;;15.90;8.77;;;;;;;;;;10178333;29;20223;-79
2021/01/25 03:17:44;;;;;;;13.60;8.90;;;;;;;;;;10182551;29;20560;-80
2021/01/25 03:22:46;;;;;;;15.63;9.30;;;;;;;;;;10176850;29;20648;-79
2021/01/25 03:27:48;;;;;;;14.97;9.87;;;;;;;;;;10182192;29;20227;-79
2021/01/25 03:32:51;;;;;;;15.03;8.67;;;;;;;;;;10177545;29;20604;-80
2021/01/25 03:37:53;;;;;;;18.23;10.37;;;;;;;;;;10171916;28;20219;-79
2021/01/25 03:42:55;;;;;;;14.37;9.67;;;;;;;;;;10175746;29;20220;-79
2021/01/25 03:47:57;;;;;;;18.03;10.00;;;;;;;;;;10177190;29;20224;-81
2021/01/25 03:53:00;;;;;;;20.23;9.33;;;;;;;;;;10178953;29;20463;-80
2021/01/25 03:58:02;;;;;;;14.70;9.70;;;;;;;;;;10177162;29;20649;-80
2021/01/25 04:03:05;;;;;;;17.33;9.80;;;;;;;;;;10180663;28;20253;-80
2021/01/25 04:08:07;;;;;;;16.43;9.73;;;;;;;;;;10176581;29;20226;-80
2021/01/25 04:13:09;;;;;;;16.03;9.57;;;;;;;;;;10177379;29;20303;-80
2021/01/25 04:18:11;;;;;;;16.77;10.07;;;;;;;;;;10170857;29;20230;-81
2021/01/25 04:23:13;;;;;;;17.73;10.30;;;;;;;;;;10180129;29;20712;-81
2021/01/25 04:28:15;;;;;;;15.60;10.03;;;;;;;;;;10171646;29;20725;-81
2021/01/25 04:33:18;;;;;;;15.70;10.27;;;;;;;;;;10168743;29;20644;-80
2021/01/25 04:38:20;;;;;;;14.83;9.80;;;;;;;;;;10176481;29;20226;-80
2021/01/25 04:43:23;;;;;;;18.87;10.40;;;;;;;;;;10181796;29;20216;-80
2021/01/25 04:48:26;;;;;;;16.03;9.50;;;;;;;;;;10178194;29;20666;-80
2021/01/25 04:53:29;;;;;;;15.10;9.73;;;;;;;;;;10177278;29;20219;-80
2021/01/25 04:58:31;;;;;;;17.03;10.10;;;;;;;;;;10180818;29;20259;-80
2021/01/25 05:03:34;;;;;;;16.70;10.50;;;;;;;;;;10173534;29;20227;-81
2021/01/25 05:08:36;;;;;;;16.73;10.23;;;;;;;;;;10174335;29;20227;-80
2021/01/25 05:13:39;;;;;;;19.20;10.40;;;;;;;;;;10176201;29;20979;-81
2021/01/25 05:18:42;;;;;;;18.43;10.10;;;;;;;;;;10169919;29;20239;-81
2021/01/25 05:23:44;;;;;;;17.93;11.07;;;;;;;;;;10178049;29;20230;-81
2021/01/25 05:28:46;;;;;;;21.27;12.03;;;;;;;;;;10174312;29;20211;-80
2021/01/25 05:33:48;;;;;;;21.10;10.77;;;;;;;;;;10173516;29;20227;-81
2021/01/25 05:38:51;;;;;;;18.90;10.90;;;;;;;;;;10174318;29;20243;-80
2021/01/25 05:43:53;;;;;;;18.57;10.97;;;;;;;;;;10174784;29;20226;-80
2021/01/25 05:48:59;;;;;;;21.20;11.00;;;;;;;;;;10171220;29;20723;-80
2021/01/25 05:54:02;;;;;;;17.53;10.57;;;;;;;;;;10175261;29;20255;-79
2021/01/25 05:59:04;;;;;;;19.67;11.47;;;;;;;;;;10176063;29;20250;-80
2021/01/25 06:04:07;;;;;;;25.00;13.20;;;;;;;;;;10179795;29;20691;-80
2021/01/25 06:09:14;;;;;;;31.37;16.23;;;;;;;;;;10181489;29;20612;-81
2021/01/25 06:14:21;;;;;;;27.33;14.83;;;;;;;;;;10186229;29;20366;-81
2021/01/25 06:19:25;;;;;;;24.90;13.73;;;;;;;;;;10179737;29;20771;-82
2021/01/25 06:24:29;;;;;;;23.40;13.43;;;;;;;;;;10187650;29;20224;-84
2021/01/25 06:29:31;;;;;;;21.90;12.60;;;;;;;;;;10186507;29;20230;-80
2021/01/25 06:34:36;;;;;;;24.87;13.40;;;;;;;;;;10182983;29;20223;-79
2021/01/25 06:39:43;;;;;;;21.90;12.30;;;;;;;;;;10182880;29;20279;-79
2021/01/25 06:44:45;;;;;;;20.57;12.20;;;;;;;;;;10181844;29;20601;-81
2021/01/25 06:49:48;;;;;;;19.83;12.40;;;;;;;;;;10189659;29;20247;-78
2021/01/25 06:54:50;;;;;;;19.17;12.13;;;;;;;;;;10188786;28;20314;-77
2021/01/25 06:59:53;;;;;;;18.80;12.40;;;;;;;;;;10193009;28;20298;-77
2021/01/25 07:04:58;;;;;;;18.83;12.47;;;;;;;;;;10178876;28;20227;-84
2021/01/25 07:10:00;;;;;;;22.73;12.90;;;;;;;;;;10171295;28;20271;-83
2021/01/25 07:15:02;;;;;;;22.27;12.77;;;;;;;;;;10176852;29;20221;-81
2021/01/25 07:20:06;;;;;;;22.37;12.80;;;;;;;;;;10184480;29;20886;-81
2021/01/25 07:25:09;;;;;;;21.67;13.00;;;;;;;;;;10190082;29;20223;-81
2021/01/25 07:30:11;;;;;;;20.23;12.63;;;;;;;;;;10195538;29;20216;-83
2021/01/25 07:35:14;;;;;;;22.70;12.73;;;;;;;;;;10179685;29;20241;-81
2021/01/25 07:40:18;;;;;;;21.73;12.93;;;;;;;;;;10190662;29;20239;-81
2021/01/25 07:45:22;;;;;;;20.27;12.67;;;;;;;;;;10188975;29;20306;-80
2021/01/25 07:50:25;;;;;;;23.67;13.93;;;;;;;;;;10189014;29;20225;-80
2021/01/25 07:55:27;;;;;;;19.40;12.57;;;;;;;;;;10193315;29;20264;-83
2021/01/25 08:00:29;;;;;;;22.30;13.07;;;;;;;;;;10185303;29;20271;-81
2021/01/25 08:05:33;;;;;;;19.97;12.50;;;;;;;;;;10190208;29;20212;-82
2021/01/25 08:10:35;;;;;;;22.70;13.70;;;;;;;;;;10185612;29;20219;-81
2021/01/25 08:15:39;;;;;;;20.97;13.70;;;;;;;;;;10193147;29;20693;-81
2021/01/25 08:20:41;;;;;;;22.70;13.67;;;;;;;;;;10178521;29;20617;-80
2021/01/25 08:25:43;;;;;;;23.83;14.00;;;;;;;;;;10188264;29;20680;-81
2021/01/25 08:30:47;;;;;;;24.33;14.13;;;;;;;;;;10181630;29;20223;-82
2021/01/25 08:35:52;;;;;;;21.47;13.87;;;;;;;;;;10184725;29;20242;-81
2021/01/25 08:40:55;;;;;;;22.33;14.60;;;;;;;;;;10184266;29;20665;-83
2021/01/25 08:46:08;;;;;;;24.07;15.00;;;;;;;;;;10180447;29;20226;-83
2021/01/25 08:51:11;;;;;;;24.67;15.57;;;;;;;;;;10185743;29;20220;-81
2021/01/25 08:56:14;;;;;;;24.20;14.50;;;;;;;;;;10186245;29;20226;-82
2021/01/25 09:01:19;;;;;;;28.33;15.67;;;;;;;;;;10187908;29;20251;-82
2021/01/25 09:06:20;;;;;;;31.70;14.50;;;;;;;;;;10184971;29;20677;-81
2021/01/25 09:11:22;;;;;;;23.40;14.53;;;;;;;;;;10184694;29;20697;-81
2021/01/25 09:16:25;;;;;;;24.10;13.43;;;;;;;;;;10183467;29;20221;-82
2021/01/25 09:21:27;;;;;;;17.87;11.93;;;;;;;;;;10184645;29;20243;-81
2021/01/25 09:26:29;;;;;;;19.73;11.97;;;;;;;;;;10175959;29;20894;-81
2021/01/25 09:31:32;;;;;;;20.20;11.60;;;;;;;;;;10185508;29;20220;-82
2021/01/25 09:36:35;;;;;;;16.50;10.10;;;;;;;;;;10181113;29;20603;-81
2021/01/25 09:41:41;;;;;;;19.93;9.93;;;;;;;;;;10184379;29;20239;-81
2021/01/25 09:46:43;;;;;;;15.93;9.63;;;;;;;;;;10180242;29;20591;-83
2021/01/25 09:51:50;;;;;;;13.27;8.17;;;;;;;;;;10182468;29;20676;-82
2021/01/25 09:56:51;;;;;;;12.77;8.00;;;;;;;;;;10184912;29;20602;-82
2021/01/25 10:01:54;;;;;;;14.23;7.80;;;;;;;;;;10179962;29;20625;-83
2021/01/25 10:06:56;;;;;;;13.23;7.30;;;;;;;;;;10184566;28;20330;-83
2021/01/25 10:11:58;;;;;;;11.43;7.10;;;;;;;;;;10181032;29;20593;-82
2021/01/25 10:17:01;;;;;;;11.10;6.73;;;;;;;;;;10186921;29;20274;-82
2021/01/25 10:22:03;;;;;;;13.80;6.70;;;;;;;;;;10182049;29;20251;-82
2021/01/25 10:27:06;;;;;;;11.90;6.40;;;;;;;;;;10182630;29;20216;-82
2021/01/25 10:32:08;;;;;;;11.90;6.57;;;;;;;;;;10186707;29;20219;-83
2021/01/25 10:37:10;;;;;;;14.60;7.20;;;;;;;;;;10188044;29;20236;-83
2021/01/25 10:42:12;;;;;;;15.00;7.20;;;;;;;;;;10180198;29;20247;-81
2021/01/25 10:47:18;;;;;;;14.70;7.87;;;;;;;;;;10189844;29;20223;-82
2021/01/25 10:52:20;;;;;;;13.27;7.50;;;;;;;;;;10187809;29;20724;-81
2021/01/25 10:57:22;;;;;;;14.50;8.03;;;;;;;;;;10190542;29;20220;-82
2021/01/25 11:02:25;;;;;;;17.87;7.90;;;;;;;;;;10191032;28;20244;-82
2021/01/25 11:07:27;;;;;;;13.07;7.93;;;;;;;;;;10193617;29;20216;-82
2021/01/25 11:12:29;;;;;;;17.30;8.10;;;;;;;;;;10188940;29;20228;-82
2021/01/25 11:17:32;;;;;;;15.77;8.03;;;;;;;;;;10182507;29;20212;-83
2021/01/25 11:22:34;;;;;;;13.53;8.33;;;;;;;;;;10185697;29;20248;-81
2021/01/25 11:27:36;;;;;;;19.63;8.43;;;;;;;;;;10184182;29;20278;-78
2021/01/25 11:32:38;;;;;;;14.10;8.07;;;;;;;;;;10179865;29;20223;-79
2021/01/25 11:37:41;;;;;;;18.10;10.37;;;;;;;;;;10184928;29;20216;-79
2021/01/25 11:42:43;;;;;;;14.37;9.13;;;;;;;;;;10179808;29;20252;-80
2021/01/25 11:47:45;;;;;;;11.53;7.70;;;;;;;;;;10182352;29;20222;-79
2021/01/25 11:52:47;;;;;;;15.20;8.27;;;;;;;;;;10188618;29;20254;-83
2021/01/25 11:57:49;;;;;;;11.67;7.70;;;;;;;;;;10183283;29;20216;-84
2021/01/25 12:03:12;;;;;;;13.30;8.20;;;;;;;;;;10174281;29;20700;-87
2021/01/25 12:08:16;;;;;;;14.93;8.67;;;;;;;;;;10174920;29;20234;-81
2021/01/25 12:13:24;;;;;;;16.13;7.67;;;;;;;;;;10182096;29;20242;-82
2021/01/25 12:18:29;;;;;;;11.63;7.37;;;;;;;;;;10175444;29;20295;-78
2021/01/25 12:23:33;;;;;;;11.83;7.63;;;;;;;;;;10177394;29;20685;-82
2021/01/25 12:28:35;;;;;;;11.87;7.60;;;;;;;;;;10172040;29;20223;-88
2021/01/25 12:33:39;;;;;;;14.07;7.67;;;;;;;;;;10184402;29;20244;-83
2021/01/25 12:38:41;;;;;;;13.20;7.00;;;;;;;;;;10180303;29;20544;-86
2021/01/25 12:43:44;;;;;;;12.87;7.03;;;;;;;;;;10179375;29;20247;-87
2021/01/25 12:48:46;;;;;;;12.33;6.90;;;;;;;;;;10186010;29;20223;-86
2021/01/25 12:53:48;;;;;;;10.47;6.80;;;;;;;;;;10177033;29;20318;-88
2021/01/25 12:58:51;;;;;;;11.63;6.43;;;;;;;;;;10182949;29;20339;-88
2021/01/25 13:03:53;;;;;;;10.43;5.90;;;;;;;;;;10178148;29;20327;-88
2021/01/25 13:08:55;;;;;;;11.57;6.13;;;;;;;;;;10185975;29;20215;-87
2021/01/25 13:13:58;;;;;;;10.83;5.30;;;;;;;;;;10187855;29;20559;-86
2021/01/25 13:19:01;;;;;;;9.73;5.30;;;;;;;;;;10181037;29;20214;-85
2021/01/25 13:24:03;;;;;;;12.33;5.90;;;;;;;;;;10184813;29;20235;-85
2021/01/25 13:29:05;;;;;;;11.37;6.30;;;;;;;;;;10187575;29;20234;-89
2021/01/25 13:34:08;;;;;;;7.93;5.40;;;;;;;;;;10186998;29;20244;-75
2021/01/25 13:39:10;;;;;;;10.53;5.83;;;;;;;;;;10180026;29;20215;-82
2021/01/25 13:44:12;;;;;;;10.50;6.23;;;;;;;;;;10168240;29;20231;-81
2021/01/25 13:49:17;;;;;;;10.07;5.90;;;;;;;;;;10177624;29;20252;-84
2021/01/25 13:54:22;;;;;;;9.73;4.87;;;;;;;;;;10179691;29;20295;-81
2021/01/25 13:59:24;;;;;;;5.93;3.40;;;;;;;;;;10181965;29;20219;-82
2021/01/25 14:04:27;;;;;;;7.00;2.70;;;;;;;;;;10182052;29;20218;-84
2021/01/25 17:40:32;;;;;;;5.87;2.43;;;;;;;;;;11316888;23;20287;-82
2021/01/25 17:45:34;;;;;;;8.10;2.80;;;;;;;;;;10239314;28;20213;-82
2021/01/25 17:50:42;;;;;;;9.03;3.20;;;;;;;;;;10241510;28;20231;-81
2021/01/25 17:55:44;;;;;;;8.33;3.40;;;;;;;;;;10246546;28;20229;-81
2021/01/25 18:00:46;;;;;;;5.87;2.70;;;;;;;;;;10299600;23;20719;-77
2021/01/25 18:05:49;;;;;;;7.57;3.33;;;;;;;;;;10251907;28;20217;-77
2021/01/25 18:10:52;;;;;;;11.90;3.30;;;;;;;;;;10250243;28;20643;-78
2021/01/25 18:15:54;;;;;;;11.33;3.67;;;;;;;;;;10250691;28;20390;-77
2021/01/25 18:20:56;;;;;;;12.47;3.40;;;;;;;;;;10231515;28;20250;-77
2021/01/25 18:26:00;;;;;;;8.50;3.27;;;;;;;;;;10240827;28;20226;-77
2021/01/25 18:31:02;;;;;;;11.60;3.60;;;;;;;;;;10247450;28;20285;-77
2021/01/25 18:36:04;;;;;;;9.70;3.53;;;;;;;;;;10244869;28;20253;-77
2021/01/25 18:41:09;;;;;;;8.90;3.83;;;;;;;;;;10247732;28;20242;-77
2021/01/25 18:46:11;;;;;;;10.23;4.80;;;;;;;;;;10248891;28;20933;-75
2021/01/25 18:51:13;;;;;;;14.70;3.77;;;;;;;;;;10240974;28;20225;-81
2021/01/25 18:56:16;;;;;;;13.47;4.17;;;;;;;;;;10241608;28;20298;-80
2021/01/25 19:01:18;;;;;;;11.50;4.50;;;;;;;;;;10246391;28;20333;-76
2021/01/25 19:06:20;;;;;;;12.13;4.03;;;;;;;;;;10241024;28;20215;-76
2021/01/25 19:11:23;;;;;;;10.67;4.30;;;;;;;;;;10244723;28;21507;-75
2021/01/25 19:16:27;;;;;;;10.03;3.50;;;;;;;;;;10241155;28;20225;-76
2021/01/25 19:21:29;;;;;;;8.07;2.90;;;;;;;;;;10243598;28;20552;-76
2021/01/25 19:26:32;;;;;;;4.73;2.30;;;;;;;;;;10236392;28;20218;-77
2021/01/25 19:31:34;;;;;;;5.07;2.27;;;;;;;;;;10241154;28;20788;-77
2021/01/25 19:36:36;;;;;;;6.33;2.30;;;;;;;;;;10240213;28;20244;-75
2021/01/25 19:41:39;;;;;;;4.90;2.43;;;;;;;;;;10245555;28;20433;-76
2021/01/25 19:46:42;;;;;;;5.27;3.10;;;;;;;;;;10245905;28;21888;-75
2021/01/25 19:51:44;;;;;;;8.70;3.50;;;;;;;;;;10247892;28;20598;-78
2021/01/25 19:56:47;;;;;;;7.67;3.33;;;;;;;;;;10245122;28;20237;-76
2021/01/25 20:01:49;;;;;;;12.00;3.60;;;;;;;;;;10244227;28;20246;-76
2021/01/25 20:06:52;;;;;;;7.07;3.83;;;;;;;;;;10243058;28;20244;-81
2021/01/25 20:11:55;;;;;;;9.90;4.17;;;;;;;;;;10238121;28;20669;-77
2021/01/25 20:16:57;;;;;;;14.17;4.77;;;;;;;;;;10236811;28;20223;-77
2021/01/25 20:21:59;;;;;;;13.47;4.30;;;;;;;;;;10240941;28;20714;-78
2021/01/25 20:27:03;;;;;;;11.80;4.07;;;;;;;;;;10236221;28;20233;-77
2021/01/25 20:32:05;;;;;;;10.03;3.67;;;;;;;;;;10241203;28;20408;-77
2021/01/25 20:37:16;;;;;;;15.23;4.33;;;;;;;;;;10242847;28;20358;-78
2021/01/25 20:42:19;;;;;;;14.80;3.83;;;;;;;;;;10237707;28;20716;-77
2021/01/25 20:47:23;;;;;;;15.33;4.30;;;;;;;;;;10239590;28;20978;-78
2021/01/25 20:52:25;;;;;;;11.73;4.63;;;;;;;;;;10241367;28;20330;-78
2021/01/25 20:57:29;;;;;;;12.43;4.00;;;;;;;;;;10239499;28;20222;-78
2021/01/25 21:02:31;;;;;;;9.63;3.80;;;;;;;;;;10234256;28;20238;-78
2021/01/25 21:07:33;;;;;;;11.70;3.67;;;;;;;;;;10240540;28;20218;-77
2021/01/25 21:12:36;;;;;;;14.77;3.90;;;;;;;;;;10239929;28;21023;-77
2021/01/25 21:17:38;;;;;;;9.73;3.77;;;;;;;;;;10240086;28;20222;-78
2021/01/25 21:22:40;;;;;;;14.30;4.20;;;;;;;;;;10238619;28;20239;-76
2021/01/25 21:27:43;;;;;;;7.60;2.63;;;;;;;;;;10240464;28;20344;-76
2021/01/25 21:32:45;;;;;;;8.20;2.40;;;;;;;;;;10240846;28;20226;-79
2021/01/25 21:37:47;;;;;;;5.43;1.63;;;;;;;;;;10232386;28;20333;-77
2021/01/25 21:42:50;;;;;;;4.83;1.57;;;;;;;;;;10245496;28;20325;-77
2021/01/25 21:47:52;;;;;;;3.07;1.53;;;;;;;;;;10238136;28;20215;-77
2021/01/25 21:52:54;;;;;;;5.03;1.40;;;;;;;;;;10245068;28;20241;-77
2021/01/25 21:57:57;;;;;;;4.17;1.30;;;;;;;;;;10241539;28;20214;-77
2021/01/25 22:02:59;;;;;;;2.17;1.37;;;;;;;;;;10242331;28;20260;-77
2021/01/25 22:08:02;;;;;;;4.20;1.60;;;;;;;;;;10245236;28;20214;-78
2021/01/25 22:13:05;;;;;;;6.50;1.70;;;;;;;;;;10241988;28;20575;-77
2021/01/25 22:18:07;;;;;;;7.30;1.80;;;;;;;;;;10246528;28;20289;-78
2021/01/25 22:23:10;;;;;;;6.07;1.80;;;;;;;;;;10237059;28;20241;-78
2021/01/25 22:28:13;;;;;;;5.60;1.70;;;;;;;;;;10240422;28;20274;-77
2021/01/25 22:33:15;;;;;;;7.37;1.57;;;;;;;;;;10246017;28;20679;-78
2021/01/25 22:38:17;;;;;;;8.27;1.77;;;;;;;;;;10243137;28;20594;-78
2021/01/25 22:43:20;;;;;;;3.80;1.40;;;;;;;;;;10252636;28;20230;-77
2021/01/25 22:48:23;;;;;;;3.77;1.70;;;;;;;;;;10246972;28;20313;-78
2021/01/25 22:53:25;;;;;;;8.97;1.83;;;;;;;;;;10243030;28;20225;-76
2021/01/25 22:58:28;;;;;;;8.43;1.90;;;;;;;;;;10244711;28;20219;-78
2021/01/25 23:03:30;;;;;;;8.80;1.90;;;;;;;;;;10248036;28;20245;-77
2021/01/25 23:08:32;;;;;;;9.20;2.17;;;;;;;;;;10248470;28;20214;-78
2021/01/25 23:13:35;;;;;;;9.53;2.30;;;;;;;;;;10242432;28;20215;-77
2021/01/25 23:18:38;;;;;;;5.87;2.00;;;;;;;;;;10247172;28;20226;-77
2021/01/25 23:23:42;;;;;;;7.20;2.10;;;;;;;;;;10247744;28;20242;-77
2021/01/25 23:28:46;;;;;;;11.93;2.10;;;;;;;;;;10242376;28;20219;-78
2021/01/25 23:33:48;;;;;;;14.67;2.20;;;;;;;;;;10237240;28;20234;-78
2021/01/25 23:38:50;;;;;;;7.37;2.10;;;;;;;;;;10243021;28;20763;-78
2021/01/25 23:43:54;;;;;;;12.30;2.20;;;;;;;;;;10245918;28;20241;-77
2021/01/25 23:48:56;;;;;;;11.40;2.20;;;;;;;;;;10250898;28;20245;-77
2021/01/25 23:53:58;;;;;;;9.73;2.63;;;;;;;;;;10248027;28;20219;-77
2021/01/25 23:59:01;;;;;;;8.63;2.10;;;;;;;;;;10247846;28;20226;-77
